sensor_id;sensor_type;location;lat;lon;timestamp;P1;durP1;ratioP1;P2;durP2;ratioP2
6209;SDS011;3138;52.550;13.148;2023-08-30T00:01:33;4.20;;;3.67;;
6209;SDS011;3138;52.550;13.148;2023-08-30T00:04:00;8.20;;;3.30;;
6209;SDS011;3138;52.550;13.148;2023-08-30T00:06:27;3.57;;;3.27;;
6209;SDS011;3138;52.550;13.148;2023-08-30T00:08:54;5.57;;;3.57;;
6209;SDS011;3138;52.550;13.148;2023-08-30T00:11:23;2.80;;;2.60;;
6209;SDS011;3138;52.550;13.148;2023-08-30T00:13:49;5.83;;;3.13;;
6209;SDS011;3138;52.550;13.148;2023-08-30T00:16:16;3.93;;;3.10;;
6209;SDS011;3138;52.550;13.148;2023-08-30T00:18:43;3.40;;;3.10;;
6209;SDS011;3138;52.550;13.148;2023-08-30T00:21:10;3.70;;;2.50;;
6209;SDS011;3138;52.550;13.148;2023-08-30T00:23:37;2.30;;;1.90;;
6209;SDS011;3138;52.550;13.148;2023-08-30T00:26:04;2.50;;;2.30;;
6209;SDS011;3138;52.550;13.148;2023-08-30T00:28:32;4.20;;;3.50;;
6209;SDS011;3138;52.550;13.148;2023-08-30T00:30:59;13.53;;;3.10;;
6209;SDS011;3138;52.550;13.148;2023-08-30T00:33:26;8.33;;;3.33;;
6209;SDS011;3138;52.550;13.148;2023-08-30T00:35:56;2.63;;;2.43;;
6209;SDS011;3138;52.550;13.148;2023-08-30T00:38:23;3.27;;;2.97;;
6209;SDS011;3138;52.550;13.148;2023-08-30T00:40:52;5.27;;;2.60;;
6209;SDS011;3138;52.550;13.148;2023-08-30T00:43:19;6.90;;;3.40;;
6209;SDS011;3138;52.550;13.148;2023-08-30T00:45:47;6.23;;;3.23;;
6209;SDS011;3138;52.550;13.148;2023-08-30T00:48:15;4.20;;;3.80;;
6209;SDS011;3138;52.550;13.148;2023-08-30T00:50:44;11.53;;;3.50;;
6209;SDS011;3138;52.550;13.148;2023-08-30T00:53:11;5.07;;;3.30;;
6209;SDS011;3138;52.550;13.148;2023-08-30T00:55:39;4.80;;;3.60;;
6209;SDS011;3138;52.550;13.148;2023-08-30T00:58:08;25.70;;;3.60;;
6209;SDS011;3138;52.550;13.148;2023-08-30T01:00:36;6.43;;;3.77;;
6209;SDS011;3138;52.550;13.148;2023-08-30T01:03:06;11.60;;;3.37;;
6209;SDS011;3138;52.550;13.148;2023-08-30T01:05:33;6.57;;;3.43;;
6209;SDS011;3138;52.550;13.148;2023-08-30T01:08:00;3.63;;;3.33;;
6209;SDS011;3138;52.550;13.148;2023-08-30T01:10:30;5.23;;;3.93;;
6209;SDS011;3138;52.550;13.148;2023-08-30T01:13:08;4.43;;;4.10;;
6209;SDS011;3138;52.550;13.148;2023-08-30T01:15:37;4.50;;;4.20;;
6209;SDS011;3138;52.550;13.148;2023-08-30T01:18:07;4.90;;;4.50;;
6209;SDS011;3138;52.550;13.148;2023-08-30T01:20:36;5.70;;;3.77;;
6209;SDS011;3138;52.550;13.148;2023-08-30T01:23:05;4.83;;;4.33;;
6209;SDS011;3138;52.550;13.148;2023-08-30T01:25:41;5.20;;;3.80;;
6209;SDS011;3138;52.550;13.148;2023-08-30T01:28:15;5.30;;;4.43;;
6209;SDS011;3138;52.550;13.148;2023-08-30T01:30:45;6.73;;;4.50;;
6209;SDS011;3138;52.550;13.148;2023-08-30T01:33:14;5.27;;;4.70;;
6209;SDS011;3138;52.550;13.148;2023-08-30T01:35:42;4.60;;;4.20;;
6209;SDS011;3138;52.550;13.148;2023-08-30T01:38:10;6.80;;;4.07;;
6209;SDS011;3138;52.550;13.148;2023-08-30T01:40:38;8.00;;;4.63;;
6209;SDS011;3138;52.550;13.148;2023-08-30T01:43:07;4.40;;;4.00;;
6209;SDS011;3138;52.550;13.148;2023-08-30T01:45:38;3.97;;;3.77;;
6209;SDS011;3138;52.550;13.148;2023-08-30T01:48:09;13.80;;;4.67;;
6209;SDS011;3138;52.550;13.148;2023-08-30T01:50:39;4.30;;;4.00;;
6209;SDS011;3138;52.550;13.148;2023-08-30T01:53:07;9.80;;;4.10;;
6209;SDS011;3138;52.550;13.148;2023-08-30T01:55:35;6.00;;;4.10;;
6209;SDS011;3138;52.550;13.148;2023-08-30T01:58:03;14.53;;;5.23;;
6209;SDS011;3138;52.550;13.148;2023-08-30T02:00:32;4.30;;;4.00;;
6209;SDS011;3138;52.550;13.148;2023-08-30T02:03:02;4.40;;;4.10;;
6209;SDS011;3138;52.550;13.148;2023-08-30T02:05:34;4.57;;;4.20;;
6209;SDS011;3138;52.550;13.148;2023-08-30T02:08:04;5.73;;;5.10;;
6209;SDS011;3138;52.550;13.148;2023-08-30T02:10:36;14.70;;;4.67;;
6209;SDS011;3138;52.550;13.148;2023-08-30T02:13:06;5.80;;;5.30;;
6209;SDS011;3138;52.550;13.148;2023-08-30T02:15:37;5.77;;;5.20;;
6209;SDS011;3138;52.550;13.148;2023-08-30T02:18:07;22.73;;;6.93;;
6209;SDS011;3138;52.550;13.148;2023-08-30T02:20:35;5.73;;;5.13;;
6209;SDS011;3138;52.550;13.148;2023-08-30T02:23:02;5.73;;;4.90;;
6209;SDS011;3138;52.550;13.148;2023-08-30T02:25:29;10.03;;;5.60;;
6209;SDS011;3138;52.550;13.148;2023-08-30T02:27:56;9.30;;;6.53;;
6209;SDS011;3138;52.550;13.148;2023-08-30T02:30:22;5.70;;;5.20;;
6209;SDS011;3138;52.550;13.148;2023-08-30T02:32:49;18.40;;;5.83;;
6209;SDS011;3138;52.550;13.148;2023-08-30T02:35:18;10.87;;;6.90;;
6209;SDS011;3138;52.550;13.148;2023-08-30T02:37:44;9.10;;;5.80;;
6209;SDS011;3138;52.550;13.148;2023-08-30T02:40:11;9.43;;;5.30;;
6209;SDS011;3138;52.550;13.148;2023-08-30T02:42:38;12.53;;;5.17;;
6209;SDS011;3138;52.550;13.148;2023-08-30T02:45:05;14.63;;;6.50;;
6209;SDS011;3138;52.550;13.148;2023-08-30T02:47:33;13.47;;;5.93;;
6209;SDS011;3138;52.550;13.148;2023-08-30T02:50:00;9.10;;;5.53;;
6209;SDS011;3138;52.550;13.148;2023-08-30T02:52:28;6.60;;;4.90;;
6209;SDS011;3138;52.550;13.148;2023-08-30T02:54:55;16.30;;;6.00;;
6209;SDS011;3138;52.550;13.148;2023-08-30T02:57:21;7.67;;;5.40;;
6209;SDS011;3138;52.550;13.148;2023-08-30T02:59:48;5.60;;;5.17;;
6209;SDS011;3138;52.550;13.148;2023-08-30T03:02:15;5.67;;;5.17;;
6209;SDS011;3138;52.550;13.148;2023-08-30T03:04:42;6.00;;;4.80;;
6209;SDS011;3138;52.550;13.148;2023-08-30T03:07:09;5.23;;;4.70;;
6209;SDS011;3138;52.550;13.148;2023-08-30T03:09:37;9.47;;;4.03;;
6209;SDS011;3138;52.550;13.148;2023-08-30T03:12:05;6.00;;;4.70;;
6209;SDS011;3138;52.550;13.148;2023-08-30T03:14:32;4.63;;;4.30;;
6209;SDS011;3138;52.550;13.148;2023-08-30T03:16:59;5.30;;;4.90;;
6209;SDS011;3138;52.550;13.148;2023-08-30T03:19:26;4.60;;;4.30;;
6209;SDS011;3138;52.550;13.148;2023-08-30T03:21:53;5.33;;;4.90;;
6209;SDS011;3138;52.550;13.148;2023-08-30T03:24:19;10.23;;;4.77;;
6209;SDS011;3138;52.550;13.148;2023-08-30T03:26:47;8.50;;;4.40;;
6209;SDS011;3138;52.550;13.148;2023-08-30T03:29:14;5.60;;;4.87;;
6209;SDS011;3138;52.550;13.148;2023-08-30T03:31:41;26.70;;;6.37;;
6209;SDS011;3138;52.550;13.148;2023-08-30T03:34:09;6.30;;;4.40;;
6209;SDS011;3138;52.550;13.148;2023-08-30T03:36:36;6.97;;;4.53;;
6209;SDS011;3138;52.550;13.148;2023-08-30T03:39:04;17.23;;;4.50;;
6209;SDS011;3138;52.550;13.148;2023-08-30T03:41:31;4.83;;;4.33;;
6209;SDS011;3138;52.550;13.148;2023-08-30T03:43:59;8.50;;;4.00;;
6209;SDS011;3138;52.550;13.148;2023-08-30T03:46:26;4.70;;;4.40;;
6209;SDS011;3138;52.550;13.148;2023-08-30T03:48:53;4.07;;;3.77;;
6209;SDS011;3138;52.550;13.148;2023-08-30T03:51:21;3.27;;;3.10;;
6209;SDS011;3138;52.550;13.148;2023-08-30T03:53:48;7.70;;;3.87;;
6209;SDS011;3138;52.550;13.148;2023-08-30T03:56:15;5.40;;;4.40;;
6209;SDS011;3138;52.550;13.148;2023-08-30T03:58:42;5.80;;;4.97;;
6209;SDS011;3138;52.550;13.148;2023-08-30T04:01:10;6.10;;;4.47;;
6209;SDS011;3138;52.550;13.148;2023-08-30T04:03:37;7.67;;;4.53;;
6209;SDS011;3138;52.550;13.148;2023-08-30T04:06:03;6.20;;;5.60;;
6209;SDS011;3138;52.550;13.148;2023-08-30T04:08:30;5.23;;;4.83;;
6209;SDS011;3138;52.550;13.148;2023-08-30T04:10:57;9.63;;;6.50;;
6209;SDS011;3138;52.550;13.148;2023-08-30T04:13:25;11.80;;;6.77;;
6209;SDS011;3138;52.550;13.148;2023-08-30T04:15:51;7.77;;;6.37;;
6209;SDS011;3138;52.550;13.148;2023-08-30T04:18:20;9.70;;;7.13;;
6209;SDS011;3138;52.550;13.148;2023-08-30T04:20:47;15.10;;;7.47;;
6209;SDS011;3138;52.550;13.148;2023-08-30T04:23:14;9.37;;;8.27;;
6209;SDS011;3138;52.550;13.148;2023-08-30T04:25:41;8.80;;;7.70;;
6209;SDS011;3138;52.550;13.148;2023-08-30T04:28:08;10.80;;;6.30;;
6209;SDS011;3138;52.550;13.148;2023-08-30T04:30:35;8.43;;;7.53;;
6209;SDS011;3138;52.550;13.148;2023-08-30T04:33:03;13.60;;;6.63;;
6209;SDS011;3138;52.550;13.148;2023-08-30T04:35:31;11.63;;;7.40;;
6209;SDS011;3138;52.550;13.148;2023-08-30T04:37:58;7.43;;;6.67;;
6209;SDS011;3138;52.550;13.148;2023-08-30T04:40:26;8.60;;;7.73;;
6209;SDS011;3138;52.550;13.148;2023-08-30T04:42:53;20.60;;;7.30;;
6209;SDS011;3138;52.550;13.148;2023-08-30T04:45:20;7.37;;;6.70;;
6209;SDS011;3138;52.550;13.148;2023-08-30T04:47:47;18.73;;;8.20;;
6209;SDS011;3138;52.550;13.148;2023-08-30T04:50:14;8.23;;;7.43;;
6209;SDS011;3138;52.550;13.148;2023-08-30T04:52:43;23.77;;;8.70;;
6209;SDS011;3138;52.550;13.148;2023-08-30T04:55:10;12.47;;;7.40;;
6209;SDS011;3138;52.550;13.148;2023-08-30T04:57:37;14.93;;;9.33;;
6209;SDS011;3138;52.550;13.148;2023-08-30T05:00:05;12.13;;;7.33;;
6209;SDS011;3138;52.550;13.148;2023-08-30T05:02:33;8.40;;;6.50;;
6209;SDS011;3138;52.550;13.148;2023-08-30T05:04:59;9.70;;;6.67;;
6209;SDS011;3138;52.550;13.148;2023-08-30T05:07:26;7.90;;;7.20;;
6209;SDS011;3138;52.550;13.148;2023-08-30T05:09:55;13.70;;;6.23;;
6209;SDS011;3138;52.550;13.148;2023-08-30T05:12:21;12.20;;;7.87;;
6209;SDS011;3138;52.550;13.148;2023-08-30T05:14:48;10.80;;;6.60;;
6209;SDS011;3138;52.550;13.148;2023-08-30T05:17:15;11.47;;;7.77;;
6209;SDS011;3138;52.550;13.148;2023-08-30T05:19:42;10.80;;;7.50;;
6209;SDS011;3138;52.550;13.148;2023-08-30T05:22:09;9.50;;;6.77;;
6209;SDS011;3138;52.550;13.148;2023-08-30T05:24:36;10.40;;;6.10;;
6209;SDS011;3138;52.550;13.148;2023-08-30T05:27:04;5.97;;;5.37;;
6209;SDS011;3138;52.550;13.148;2023-08-30T05:29:32;13.57;;;6.30;;
6209;SDS011;3138;52.550;13.148;2023-08-30T05:31:59;13.53;;;6.60;;
6209;SDS011;3138;52.550;13.148;2023-08-30T05:34:25;11.87;;;6.70;;
6209;SDS011;3138;52.550;13.148;2023-08-30T05:36:53;9.10;;;7.00;;
6209;SDS011;3138;52.550;13.148;2023-08-30T05:39:20;6.43;;;5.83;;
6209;SDS011;3138;52.550;13.148;2023-08-30T05:41:47;6.10;;;5.50;;
6209;SDS011;3138;52.550;13.148;2023-08-30T05:44:15;6.83;;;6.23;;
6209;SDS011;3138;52.550;13.148;2023-08-30T05:46:42;9.07;;;6.67;;
6209;SDS011;3138;52.550;13.148;2023-08-30T05:49:08;9.90;;;6.10;;
6209;SDS011;3138;52.550;13.148;2023-08-30T05:51:35;16.70;;;5.77;;
6209;SDS011;3138;52.550;13.148;2023-08-30T05:54:02;7.37;;;6.50;;
6209;SDS011;3138;52.550;13.148;2023-08-30T05:56:29;6.23;;;5.67;;
6209;SDS011;3138;52.550;13.148;2023-08-30T05:58:56;5.10;;;4.70;;
6209;SDS011;3138;52.550;13.148;2023-08-30T06:01:25;13.43;;;5.30;;
6209;SDS011;3138;52.550;13.148;2023-08-30T06:03:51;11.90;;;5.30;;
6209;SDS011;3138;52.550;13.148;2023-08-30T06:06:19;5.73;;;4.70;;
6209;SDS011;3138;52.550;13.148;2023-08-30T06:08:46;11.17;;;5.00;;
6209;SDS011;3138;52.550;13.148;2023-08-30T06:11:13;6.00;;;5.40;;
6209;SDS011;3138;52.550;13.148;2023-08-30T06:13:41;6.50;;;5.50;;
6209;SDS011;3138;52.550;13.148;2023-08-30T06:16:08;7.13;;;5.40;;
6209;SDS011;3138;52.550;13.148;2023-08-30T06:18:36;6.77;;;5.10;;
6209;SDS011;3138;52.550;13.148;2023-08-30T06:21:03;6.40;;;4.80;;
6209;SDS011;3138;52.550;13.148;2023-08-30T06:23:30;8.13;;;4.23;;
6209;SDS011;3138;52.550;13.148;2023-08-30T06:25:57;8.97;;;5.33;;
6209;SDS011;3138;52.550;13.148;2023-08-30T06:28:24;5.20;;;4.20;;
6209;SDS011;3138;52.550;13.148;2023-08-30T06:30:51;4.57;;;4.03;;
6209;SDS011;3138;52.550;13.148;2023-08-30T06:33:18;7.40;;;4.50;;
6209;SDS011;3138;52.550;13.148;2023-08-30T06:35:48;5.67;;;4.10;;
6209;SDS011;3138;52.550;13.148;2023-08-30T06:38:15;6.77;;;4.43;;
6209;SDS011;3138;52.550;13.148;2023-08-30T06:40:43;10.20;;;4.30;;
6209;SDS011;3138;52.550;13.148;2023-08-30T06:43:11;4.43;;;4.03;;
6209;SDS011;3138;52.550;13.148;2023-08-30T06:45:38;6.83;;;3.77;;
6209;SDS011;3138;52.550;13.148;2023-08-30T06:48:05;14.97;;;4.10;;
6209;SDS011;3138;52.550;13.148;2023-08-30T06:50:32;4.57;;;3.70;;
6209;SDS011;3138;52.550;13.148;2023-08-30T06:53:01;7.90;;;4.20;;
6209;SDS011;3138;52.550;13.148;2023-08-30T06:55:28;8.20;;;4.60;;
6209;SDS011;3138;52.550;13.148;2023-08-30T06:57:55;7.90;;;4.13;;
6209;SDS011;3138;52.550;13.148;2023-08-30T07:00:22;9.93;;;4.70;;
6209;SDS011;3138;52.550;13.148;2023-08-30T07:02:48;9.40;;;4.63;;
6209;SDS011;3138;52.550;13.148;2023-08-30T07:05:15;5.47;;;4.80;;
6209;SDS011;3138;52.550;13.148;2023-08-30T07:07:42;19.50;;;4.70;;
6209;SDS011;3138;52.550;13.148;2023-08-30T07:10:10;5.03;;;4.53;;
6209;SDS011;3138;52.550;13.148;2023-08-30T07:12:37;9.17;;;4.40;;
6209;SDS011;3138;52.550;13.148;2023-08-30T07:15:04;5.37;;;4.10;;
6209;SDS011;3138;52.550;13.148;2023-08-30T07:17:32;7.63;;;4.10;;
6209;SDS011;3138;52.550;13.148;2023-08-30T07:19:58;7.53;;;4.93;;
6209;SDS011;3138;52.550;13.148;2023-08-30T07:22:26;6.17;;;3.40;;
6209;SDS011;3138;52.550;13.148;2023-08-30T07:24:53;4.93;;;4.50;;
6209;SDS011;3138;52.550;13.148;2023-08-30T07:27:21;5.80;;;4.50;;
6209;SDS011;3138;52.550;13.148;2023-08-30T07:29:48;10.60;;;4.17;;
6209;SDS011;3138;52.550;13.148;2023-08-30T07:32:15;6.30;;;4.00;;
6209;SDS011;3138;52.550;13.148;2023-08-30T07:34:41;4.30;;;3.90;;
6209;SDS011;3138;52.550;13.148;2023-08-30T07:37:16;4.60;;;4.17;;
6209;SDS011;3138;52.550;13.148;2023-08-30T07:39:44;4.67;;;3.97;;
6209;SDS011;3138;52.550;13.148;2023-08-30T07:42:10;6.33;;;4.03;;
6209;SDS011;3138;52.550;13.148;2023-08-30T07:44:39;5.83;;;4.20;;
6209;SDS011;3138;52.550;13.148;2023-08-30T07:47:05;7.10;;;4.03;;
6209;SDS011;3138;52.550;13.148;2023-08-30T07:49:32;3.57;;;3.37;;
6209;SDS011;3138;52.550;13.148;2023-08-30T07:51:59;6.20;;;4.40;;
6209;SDS011;3138;52.550;13.148;2023-08-30T07:54:26;5.00;;;3.97;;
6209;SDS011;3138;52.550;13.148;2023-08-30T07:56:53;10.70;;;4.50;;
6209;SDS011;3138;52.550;13.148;2023-08-30T07:59:22;7.27;;;3.80;;
6209;SDS011;3138;52.550;13.148;2023-08-30T08:01:51;6.97;;;4.30;;
6209;SDS011;3138;52.550;13.148;2023-08-30T08:04:17;3.87;;;3.57;;
6209;SDS011;3138;52.550;13.148;2023-08-30T08:06:44;4.50;;;4.20;;
6209;SDS011;3138;52.550;13.148;2023-08-30T08:09:11;5.27;;;4.17;;
6209;SDS011;3138;52.550;13.148;2023-08-30T08:11:38;6.67;;;4.20;;
6209;SDS011;3138;52.550;13.148;2023-08-30T08:14:08;3.83;;;3.40;;
6209;SDS011;3138;52.550;13.148;2023-08-30T08:16:35;7.07;;;3.10;;
6209;SDS011;3138;52.550;13.148;2023-08-30T08:19:03;5.53;;;2.90;;
6209;SDS011;3138;52.550;13.148;2023-08-30T08:21:31;4.53;;;2.73;;
6209;SDS011;3138;52.550;13.148;2023-08-30T08:23:58;8.97;;;3.60;;
6209;SDS011;3138;52.550;13.148;2023-08-30T08:26:24;7.63;;;2.87;;
6209;SDS011;3138;52.550;13.148;2023-08-30T08:28:51;5.80;;;3.90;;
6209;SDS011;3138;52.550;13.148;2023-08-30T08:31:19;5.70;;;3.57;;
6209;SDS011;3138;52.550;13.148;2023-08-30T08:33:46;7.40;;;3.40;;
6209;SDS011;3138;52.550;13.148;2023-08-30T08:36:17;7.50;;;2.97;;
6209;SDS011;3138;52.550;13.148;2023-08-30T08:38:44;4.53;;;3.53;;
6209;SDS011;3138;52.550;13.148;2023-08-30T08:41:12;3.80;;;3.50;;
6209;SDS011;3138;52.550;13.148;2023-08-30T08:43:40;5.20;;;3.67;;
6209;SDS011;3138;52.550;13.148;2023-08-30T08:46:09;3.30;;;3.10;;
6209;SDS011;3138;52.550;13.148;2023-08-30T08:48:39;4.93;;;3.40;;
6209;SDS011;3138;52.550;13.148;2023-08-30T08:51:07;2.37;;;2.27;;
6209;SDS011;3138;52.550;13.148;2023-08-30T08:53:35;4.60;;;2.50;;
6209;SDS011;3138;52.550;13.148;2023-08-30T08:56:03;3.90;;;3.60;;
6209;SDS011;3138;52.550;13.148;2023-08-30T08:58:33;4.03;;;3.73;;
6209;SDS011;3138;52.550;13.148;2023-08-30T09:01:01;9.97;;;3.70;;
6209;SDS011;3138;52.550;13.148;2023-08-30T09:03:30;14.40;;;4.50;;
6209;SDS011;3138;52.550;13.148;2023-08-30T09:05:59;12.00;;;3.10;;
6209;SDS011;3138;52.550;13.148;2023-08-30T09:08:27;6.10;;;2.90;;
6209;SDS011;3138;52.550;13.148;2023-08-30T09:10:55;4.13;;;3.73;;
6209;SDS011;3138;52.550;13.148;2023-08-30T09:13:22;4.00;;;3.60;;
6209;SDS011;3138;52.550;13.148;2023-08-30T09:15:49;11.23;;;4.03;;
6209;SDS011;3138;52.550;13.148;2023-08-30T09:18:16;6.40;;;2.80;;
6209;SDS011;3138;52.550;13.148;2023-08-30T09:20:42;5.70;;;3.53;;
6209;SDS011;3138;52.550;13.148;2023-08-30T09:23:16;8.43;;;3.60;;
6209;SDS011;3138;52.550;13.148;2023-08-30T09:25:43;6.37;;;3.80;;
6209;SDS011;3138;52.550;13.148;2023-08-30T09:28:12;3.37;;;3.13;;
6209;SDS011;3138;52.550;13.148;2023-08-30T09:30:39;2.60;;;2.40;;
6209;SDS011;3138;52.550;13.148;2023-08-30T09:33:06;6.23;;;3.17;;
6209;SDS011;3138;52.550;13.148;2023-08-30T09:35:34;4.37;;;2.27;;
6209;SDS011;3138;52.550;13.148;2023-08-30T09:38:15;5.57;;;2.43;;
6209;SDS011;3138;52.550;13.148;2023-08-30T09:40:42;5.47;;;2.57;;
6209;SDS011;3138;52.550;13.148;2023-08-30T09:43:10;4.07;;;3.10;;
6209;SDS011;3138;52.550;13.148;2023-08-30T09:45:39;9.43;;;2.53;;
6209;SDS011;3138;52.550;13.148;2023-08-30T09:48:06;3.90;;;2.67;;
6209;SDS011;3138;52.550;13.148;2023-08-30T09:50:34;4.10;;;3.40;;
6209;SDS011;3138;52.550;13.148;2023-08-30T09:53:01;6.87;;;2.53;;
6209;SDS011;3138;52.550;13.148;2023-08-30T09:55:32;13.90;;;3.00;;
6209;SDS011;3138;52.550;13.148;2023-08-30T09:58:00;3.60;;;2.77;;
6209;SDS011;3138;52.550;13.148;2023-08-30T10:00:30;3.17;;;2.87;;
6209;SDS011;3138;52.550;13.148;2023-08-30T10:02:58;5.20;;;2.97;;
6209;SDS011;3138;52.550;13.148;2023-08-30T10:05:26;2.63;;;2.40;;
6209;SDS011;3138;52.550;13.148;2023-08-30T10:07:53;4.60;;;2.60;;
6209;SDS011;3138;52.550;13.148;2023-08-30T10:10:21;3.30;;;3.10;;
6209;SDS011;3138;52.550;13.148;2023-08-30T10:12:48;3.50;;;3.20;;
6209;SDS011;3138;52.550;13.148;2023-08-30T10:15:16;3.43;;;3.10;;
6209;SDS011;3138;52.550;13.148;2023-08-30T10:17:46;3.40;;;2.43;;
6209;SDS011;3138;52.550;13.148;2023-08-30T10:20:16;8.53;;;2.30;;
6209;SDS011;3138;52.550;13.148;2023-08-30T10:22:43;3.00;;;2.60;;
6209;SDS011;3138;52.550;13.148;2023-08-30T10:25:11;7.90;;;3.10;;
6209;SDS011;3138;52.550;13.148;2023-08-30T10:27:45;5.07;;;3.00;;
6209;SDS011;3138;52.550;13.148;2023-08-30T10:30:13;2.93;;;2.63;;
6209;SDS011;3138;52.550;13.148;2023-08-30T10:32:42;5.53;;;2.53;;
6209;SDS011;3138;52.550;13.148;2023-08-30T10:35:14;5.37;;;2.47;;
6209;SDS011;3138;52.550;13.148;2023-08-30T10:37:42;3.80;;;2.50;;
6209;SDS011;3138;52.550;13.148;2023-08-30T10:40:19;5.93;;;3.00;;
6209;SDS011;3138;52.550;13.148;2023-08-30T10:42:47;5.13;;;2.17;;
6209;SDS011;3138;52.550;13.148;2023-08-30T10:45:24;7.30;;;2.00;;
6209;SDS011;3138;52.550;13.148;2023-08-30T10:47:54;3.10;;;2.00;;
6209;SDS011;3138;52.550;13.148;2023-08-30T10:50:28;2.23;;;2.03;;
6209;SDS011;3138;52.550;13.148;2023-08-30T10:52:57;3.27;;;2.40;;
6209;SDS011;3138;52.550;13.148;2023-08-30T10:55:24;7.87;;;2.90;;
6209;SDS011;3138;52.550;13.148;2023-08-30T10:57:58;4.53;;;2.50;;
6209;SDS011;3138;52.550;13.148;2023-08-30T11:00:27;3.03;;;2.83;;
6209;SDS011;3138;52.550;13.148;2023-08-30T11:02:55;7.47;;;2.60;;
6209;SDS011;3138;52.550;13.148;2023-08-30T11:05:22;2.80;;;2.60;;
6209;SDS011;3138;52.550;13.148;2023-08-30T11:07:51;5.50;;;2.40;;
6209;SDS011;3138;52.550;13.148;2023-08-30T11:10:18;7.93;;;4.03;;
6209;SDS011;3138;52.550;13.148;2023-08-30T11:12:47;3.70;;;3.40;;
6209;SDS011;3138;52.550;13.148;2023-08-30T11:15:15;4.70;;;3.20;;
6209;SDS011;3138;52.550;13.148;2023-08-30T11:17:42;8.40;;;3.90;;
6209;SDS011;3138;52.550;13.148;2023-08-30T11:20:10;7.17;;;3.33;;
6209;SDS011;3138;52.550;13.148;2023-08-30T11:22:39;6.47;;;3.23;;
6209;SDS011;3138;52.550;13.148;2023-08-30T11:25:09;2.83;;;2.60;;
6209;SDS011;3138;52.550;13.148;2023-08-30T11:27:37;4.00;;;2.50;;
6209;SDS011;3138;52.550;13.148;2023-08-30T11:30:04;4.10;;;3.47;;
6209;SDS011;3138;52.550;13.148;2023-08-30T11:32:33;3.60;;;3.00;;
6209;SDS011;3138;52.550;13.148;2023-08-30T11:35:00;6.90;;;2.70;;
6209;SDS011;3138;52.550;13.148;2023-08-30T11:37:28;3.97;;;3.00;;
6209;SDS011;3138;52.550;13.148;2023-08-30T11:39:55;8.00;;;3.00;;
6209;SDS011;3138;52.550;13.148;2023-08-30T11:42:23;3.70;;;2.87;;
6209;SDS011;3138;52.550;13.148;2023-08-30T11:44:51;4.90;;;3.20;;
6209;SDS011;3138;52.550;13.148;2023-08-30T11:47:19;5.83;;;2.90;;
6209;SDS011;3138;52.550;13.148;2023-08-30T11:49:46;4.33;;;3.50;;
6209;SDS011;3138;52.550;13.148;2023-08-30T11:52:15;4.70;;;3.37;;
6209;SDS011;3138;52.550;13.148;2023-08-30T11:54:42;7.90;;;4.20;;
6209;SDS011;3138;52.550;13.148;2023-08-30T11:57:09;7.03;;;4.17;;
6209;SDS011;3138;52.550;13.148;2023-08-30T11:59:38;4.60;;;4.20;;
6209;SDS011;3138;52.550;13.148;2023-08-30T12:02:05;8.83;;;4.27;;
6209;SDS011;3138;52.550;13.148;2023-08-30T12:04:39;11.23;;;3.53;;
6209;SDS011;3138;52.550;13.148;2023-08-30T12:07:06;4.00;;;3.30;;
6209;SDS011;3138;52.550;13.148;2023-08-30T12:09:33;3.20;;;2.90;;
6209;SDS011;3138;52.550;13.148;2023-08-30T12:12:06;3.43;;;2.67;;
6209;SDS011;3138;52.550;13.148;2023-08-30T12:14:38;3.00;;;2.80;;
6209;SDS011;3138;52.550;13.148;2023-08-30T12:17:05;6.10;;;2.77;;
6209;SDS011;3138;52.550;13.148;2023-08-30T12:19:33;4.47;;;2.83;;
6209;SDS011;3138;52.550;13.148;2023-08-30T12:22:03;5.20;;;2.33;;
6209;SDS011;3138;52.550;13.148;2023-08-30T12:24:41;3.60;;;2.30;;
6209;SDS011;3138;52.550;13.148;2023-08-30T12:27:08;3.93;;;2.03;;
6209;SDS011;3138;52.550;13.148;2023-08-30T12:29:35;2.37;;;2.23;;
6209;SDS011;3138;52.550;13.148;2023-08-30T12:32:04;3.27;;;2.17;;
6209;SDS011;3138;52.550;13.148;2023-08-30T12:34:31;4.20;;;2.43;;
6209;SDS011;3138;52.550;13.148;2023-08-30T12:36:58;3.70;;;2.73;;
6209;SDS011;3138;52.550;13.148;2023-08-30T12:39:27;10.40;;;2.30;;
6209;SDS011;3138;52.550;13.148;2023-08-30T12:41:53;2.97;;;2.30;;
6209;SDS011;3138;52.550;13.148;2023-08-30T12:44:21;2.77;;;2.50;;
6209;SDS011;3138;52.550;13.148;2023-08-30T12:46:49;2.80;;;2.60;;
6209;SDS011;3138;52.550;13.148;2023-08-30T12:49:15;7.83;;;2.23;;
6209;SDS011;3138;52.550;13.148;2023-08-30T12:51:42;5.70;;;2.80;;
6209;SDS011;3138;52.550;13.148;2023-08-30T12:54:09;4.07;;;2.20;;
6209;SDS011;3138;52.550;13.148;2023-08-30T12:56:36;2.40;;;2.30;;
6209;SDS011;3138;52.550;13.148;2023-08-30T12:59:03;6.83;;;3.60;;
6209;SDS011;3138;52.550;13.148;2023-08-30T13:01:30;4.43;;;3.10;;
6209;SDS011;3138;52.550;13.148;2023-08-30T13:03:58;2.93;;;2.73;;
6209;SDS011;3138;52.550;13.148;2023-08-30T13:06:25;7.97;;;3.47;;
6209;SDS011;3138;52.550;13.148;2023-08-30T13:08:51;11.03;;;2.63;;
6209;SDS011;3138;52.550;13.148;2023-08-30T13:11:18;6.70;;;3.03;;
6209;SDS011;3138;52.550;13.148;2023-08-30T13:13:45;2.70;;;2.60;;
6209;SDS011;3138;52.550;13.148;2023-08-30T13:16:12;2.40;;;2.20;;
6209;SDS011;3138;52.550;13.148;2023-08-30T13:18:38;3.17;;;2.33;;
6209;SDS011;3138;52.550;13.148;2023-08-30T13:21:07;2.90;;;2.70;;
6209;SDS011;3138;52.550;13.148;2023-08-30T13:23:34;4.50;;;2.90;;
6209;SDS011;3138;52.550;13.148;2023-08-30T13:26:01;5.40;;;2.87;;
6209;SDS011;3138;52.550;13.148;2023-08-30T13:28:28;3.43;;;2.00;;
6209;SDS011;3138;52.550;13.148;2023-08-30T13:30:55;5.90;;;2.60;;
6209;SDS011;3138;52.550;13.148;2023-08-30T13:33:22;3.17;;;2.73;;
6209;SDS011;3138;52.550;13.148;2023-08-30T13:35:49;2.33;;;2.23;;
6209;SDS011;3138;52.550;13.148;2023-08-30T13:38:18;4.00;;;1.40;;
6209;SDS011;3138;52.550;13.148;2023-08-30T13:40:45;1.53;;;1.53;;
6209;SDS011;3138;52.550;13.148;2023-08-30T13:43:12;3.57;;;2.40;;
6209;SDS011;3138;52.550;13.148;2023-08-30T13:45:39;6.57;;;2.20;;
6209;SDS011;3138;52.550;13.148;2023-08-30T13:48:06;3.20;;;1.93;;
6209;SDS011;3138;52.550;13.148;2023-08-30T13:50:33;3.17;;;1.90;;
6209;SDS011;3138;52.550;13.148;2023-08-30T13:52:59;3.80;;;1.60;;
6209;SDS011;3138;52.550;13.148;2023-08-30T13:55:28;4.67;;;1.90;;
6209;SDS011;3138;52.550;13.148;2023-08-30T13:57:56;3.33;;;1.70;;
6209;SDS011;3138;52.550;13.148;2023-08-30T14:00:22;8.50;;;2.10;;
6209;SDS011;3138;52.550;13.148;2023-08-30T14:02:49;4.10;;;1.80;;
6209;SDS011;3138;52.550;13.148;2023-08-30T14:05:16;4.17;;;1.83;;
6209;SDS011;3138;52.550;13.148;2023-08-30T14:07:44;6.03;;;1.67;;
6209;SDS011;3138;52.550;13.148;2023-08-30T14:10:10;2.40;;;1.53;;
6209;SDS011;3138;52.550;13.148;2023-08-30T14:12:43;2.90;;;1.43;;
6209;SDS011;3138;52.550;13.148;2023-08-30T14:15:09;6.53;;;1.60;;
6209;SDS011;3138;52.550;13.148;2023-08-30T14:17:36;4.07;;;1.50;;
6209;SDS011;3138;52.550;13.148;2023-08-30T14:20:03;12.77;;;1.47;;
6209;SDS011;3138;52.550;13.148;2023-08-30T14:22:31;1.57;;;1.40;;
6209;SDS011;3138;52.550;13.148;2023-08-30T14:24:58;2.27;;;2.07;;
6209;SDS011;3138;52.550;13.148;2023-08-30T14:27:25;4.03;;;1.50;;
6209;SDS011;3138;52.550;13.148;2023-08-30T14:29:54;1.57;;;1.47;;
6209;SDS011;3138;52.550;13.148;2023-08-30T14:32:23;3.33;;;2.10;;
6209;SDS011;3138;52.550;13.148;2023-08-30T14:34:50;6.10;;;2.10;;
6209;SDS011;3138;52.550;13.148;2023-08-30T14:37:16;2.60;;;1.47;;
6209;SDS011;3138;52.550;13.148;2023-08-30T14:39:43;3.53;;;1.77;;
6209;SDS011;3138;52.550;13.148;2023-08-30T14:42:10;2.70;;;1.90;;
6209;SDS011;3138;52.550;13.148;2023-08-30T14:44:37;3.17;;;1.43;;
6209;SDS011;3138;52.550;13.148;2023-08-30T14:47:05;2.00;;;1.90;;
6209;SDS011;3138;52.550;13.148;2023-08-30T14:49:32;4.13;;;2.00;;
6209;SDS011;3138;52.550;13.148;2023-08-30T14:51:59;4.50;;;1.63;;
6209;SDS011;3138;52.550;13.148;2023-08-30T14:54:26;2.67;;;1.77;;
6209;SDS011;3138;52.550;13.148;2023-08-30T14:56:53;1.47;;;1.37;;
6209;SDS011;3138;52.550;13.148;2023-08-30T14:59:19;2.50;;;1.67;;
6209;SDS011;3138;52.550;13.148;2023-08-30T15:01:46;1.53;;;1.40;;
6209;SDS011;3138;52.550;13.148;2023-08-30T15:04:14;3.23;;;1.67;;